Decoded Metar for ULLI (ST. PETERSBURG in RUSSIA) (IATA:LED) | Meteo·Mobile Aviation Weather
aviador You're here:

ULLI Decoded Metar

ST. PETERSBURG in RUSSIA
Report Time2018-12-19 01:00:00
UTC Time2018-12-19 01:41:16
Flight Rules ifr IFR
Wind140° at 6 kt
W.Decomp.*RWY 10: 5.1 kt HW 3.1 kt RCW
W.Rank140° ranks 18
Current wind is below 140° avg. (7.4)
Visibility3800 m
Phenomena:Light Snow
Clouds:Few 010 Hf
Broken 016 Hf
Expected CloudBase > 800 ft AGL from Temp-Dew spread
Ceiling1,600 ft
Temp-8°C (ISA -23)
Dew Point-10°C (86% RH)
AAT-13.2°C
QNH1032 hPa
Density Alt-3,458 ft
Elevation13 ft
Report Wrong Elevation
Raw Report
ULLI 190100Z 14003MPS 3800 -SN FEW010 BKN016 M08/M10 Q1032
R10L/490338 NOSIG=

Extra information for ULLI:More info

Metar Taf Metar & Taf Last 4 Metars F.Rules Stats Wind Profile Meteogram Temp Stats Airport Information Weather charts Add Link Nearby VenuesMetar ALERT Operation Metar Decoded Social comments